Time;durP1;ratioP1;P1;durP2;ratioP2;P2;SDS_P1;SDS_P2;PMS_P1;PMS_P2;Temp;Humidity;BMP_temperature;BMP_pressure;BME280_temperature;BME280_humidity;BME280_pressure;Samples;Min_cycle;Max_cycle;Signal;HPM_P1;HPM_P2
2022/04/14 00:05:29;;;;;;;;;;;;;;;9.28;41.23;100996.48;106013;1276;22546;-80
2022/04/14 00:07:56;;;;;;;14.00;9.30;;;;;;;9.26;41.18;100994.71;105818;1276;24226;-81
2022/04/14 00:10:23;;;;;;;15.80;9.30;;;;;;;9.22;41.11;100998.02;106028;1276;22550;-81
2022/04/14 00:12:50;;;;;;;16.50;11.40;;;;;;;9.15;41.13;100998.31;105981;1276;24220;-83
2022/04/14 00:15:17;;;;;;;17.00;11.10;;;;;;;9.14;41.14;100995.86;105664;1281;22605;-79
2022/04/14 00:17:45;;;;;;;15.60;10.00;;;;;;;9.14;41.33;100993.58;105650;1282;25606;-83
2022/04/14 00:20:12;;;;;;;15.80;9.90;;;;;;;9.15;41.31;100993.05;105656;1281;23995;-82
2022/04/14 00:22:40;;;;;;;13.70;9.40;;;;;;;9.16;41.31;100993.05;105753;1281;25453;-79
2022/04/14 00:25:07;;;;;;;16.40;10.30;;;;;;;9.14;41.29;100991.81;105769;1281;25500;-81
2022/04/14 00:27:34;;;;;;;14.40;10.20;;;;;;;9.16;41.04;100989.89;106257;1282;22751;-80
2022/04/14 00:30:01;;;;;;;15.30;9.90;;;;;;;9.15;41.09;100987.61;106061;1281;25307;-82
2022/04/14 00:32:31;;;;;;;14.30;9.00;;;;;;;9.16;41.10;100981.10;106007;1281;24331;-79
2022/04/14 00:34:58;;;;;;;15.00;9.80;;;;;;;9.15;41.18;100977.94;105946;1277;24392;-83
2022/04/14 00:37:27;;;;;;;15.90;10.40;;;;;;;9.18;41.20;100981.48;106868;1276;22358;-83
2022/04/14 00:39:54;;;;;;;15.80;9.30;;;;;;;9.15;41.23;100979.17;106100;1276;22723;-84
2022/04/14 00:42:21;;;;;;;18.60;10.80;;;;;;;9.13;41.25;100979.16;106053;1276;22759;-80
2022/04/14 00:44:47;;;;;;;14.80;10.60;;;;;;;9.13;41.25;100973.19;106576;1276;25382;-79
2022/04/14 00:47:16;;;;;;;15.70;10.90;;;;;;;9.14;41.27;100969.50;106723;1279;23959;-82
2022/04/14 00:49:44;;;;;;;15.20;9.90;;;;;;;9.12;41.13;100970.54;106213;1279;22517;-81
2022/04/14 00:52:14;;;;;;;15.70;9.50;;;;;;;9.10;41.17;100968.06;106641;1279;23865;-80
2022/04/14 00:54:41;;;;;;;18.30;10.00;;;;;;;9.06;41.15;100967.16;107414;1279;22610;-80
2022/04/14 00:57:08;;;;;;;16.40;9.50;;;;;;;9.06;41.14;100963.30;108531;1279;22764;-81
2022/04/14 00:59:35;;;;;;;19.90;9.80;;;;;;;9.09;41.15;100963.31;107840;1279;24360;-80
2022/04/14 01:02:03;;;;;;;19.50;9.70;;;;;;;9.10;41.12;100960.52;107024;1279;22573;-80
2022/04/14 01:04:32;;;;;;;14.80;9.40;;;;;;;9.10;41.17;100960.86;106201;1276;25300;-79
2022/04/14 01:07:00;;;;;;;13.20;9.40;;;;;;;9.09;41.15;100957.18;106383;1276;25364;-81
2022/04/14 01:09:29;;;;;;;16.90;9.60;;;;;;;9.09;41.06;100959.81;106384;1276;22568;-79
2022/04/14 01:11:56;;;;;;;13.40;9.30;;;;;;;9.08;41.01;100962.09;105819;1276;24383;-80
2022/04/14 01:14:30;;;;;;;13.50;9.30;;;;;;;9.06;41.03;100967.00;105804;1276;24403;-79
2022/04/14 01:17:01;;;;;;;17.00;10.00;;;;;;;9.06;41.08;100963.48;105828;1276;22537;-79
2022/04/14 01:19:29;;;;;;;19.00;9.90;;;;;;;9.02;41.12;100965.92;105921;1276;24532;-78
2022/04/14 01:21:59;;;;;;;15.30;9.40;;;;;;;9.02;41.18;100969.27;105638;1276;22488;-81
2022/04/14 01:24:26;;;;;;;13.10;9.00;;;;;;;8.97;41.14;100962.38;106051;1276;23223;-82
2022/04/14 01:26:55;;;;;;;14.50;9.00;;;;;;;8.98;41.29;100962.21;105809;1276;22805;-83
2022/04/14 01:29:25;;;;;;;16.50;9.30;;;;;;;8.98;41.20;100959.58;105922;1276;25656;-82
2022/04/14 01:31:54;;;;;;;16.30;10.00;;;;;;;8.95;41.30;100958.13;105674;1278;22642;-79
2022/04/14 01:34:23;;;;;;;12.10;8.30;;;;;;;8.95;41.35;100960.41;105968;1278;22670;-81
2022/04/14 01:36:50;;;;;;;11.40;8.30;;;;;;;8.94;41.43;100960.42;105903;1278;22556;-82
2022/04/14 01:39:17;;;;;;;13.70;9.30;;;;;;;8.95;41.25;100960.41;105612;1279;26638;-82
2022/04/14 01:41:47;;;;;;;12.60;8.40;;;;;;;8.96;41.34;100964.82;105638;1279;25364;-83
2022/04/14 01:44:16;;;;;;;11.70;8.60;;;;;;;8.94;41.26;100960.25;105805;1279;22567;-83
2022/04/14 01:46:43;;;;;;;13.80;9.70;;;;;;;8.98;41.29;100963.78;105926;1278;22679;-83
2022/04/14 01:49:11;;;;;;;13.90;9.00;;;;;;;8.94;41.25;100963.75;106073;1276;24357;-83
2022/04/14 01:51:39;;;;;;;14.20;9.40;;;;;;;8.93;41.45;100966.38;106241;1275;22566;-82
2022/04/14 01:58:26;;;;;;;14.50;9.20;;;;;;;8.93;41.64;100965.86;106312;1276;22777;-79
2022/04/14 02:00:53;;;;;;;19.10;10.80;;;;;;;8.91;41.63;100968.30;106070;1276;22576;-81
2022/04/14 02:03:21;;;;;;;14.60;10.20;;;;;;;8.90;41.76;100966.55;106085;1276;25244;-77
2022/04/14 02:05:47;;;;;;;18.50;10.20;;;;;;;8.88;41.78;100964.77;105970;1276;22544;-82
2022/04/14 02:08:14;;;;;;;18.90;9.90;;;;;;;8.87;41.78;100964.41;106063;1276;22797;-81
2022/04/14 02:10:41;;;;;;;14.20;10.40;;;;;;;8.87;41.87;100962.84;106064;1276;25616;-81
2022/04/14 02:13:08;;;;;;;15.60;9.70;;;;;;;8.86;41.89;100961.23;105847;1276;24446;-81
2022/04/14 02:15:35;;;;;;;16.50;10.50;;;;;;;8.85;41.89;100958.95;105637;1276;22551;-82
2022/04/14 02:18:02;;;;;;;14.30;9.90;;;;;;;8.84;42.07;100959.12;105636;1276;22557;-80
2022/04/14 02:20:29;;;;;;;15.20;10.10;;;;;;;8.83;42.10;100957.54;105746;1276;22838;-80
2022/04/14 02:22:56;;;;;;;15.40;10.30;;;;;;;8.81;42.11;100960.86;105875;1276;25658;-78
2022/04/14 02:25:23;;;;;;;18.30;10.10;;;;;;;8.78;42.15;100965.93;106372;1276;23287;-81
2022/04/14 02:32:05;;;;;;;14.60;9.10;;;;;;;8.76;42.23;100963.44;106181;1274;22575;-81
2022/04/14 02:34:32;;;;;;;15.80;10.20;;;;;;;8.74;42.14;100963.09;105987;1276;24320;-81
2022/04/14 02:36:59;;;;;;;18.20;12.50;;;;;;;8.73;42.28;100959.73;106041;1276;26505;-79
2022/04/14 02:39:26;;;;;;;20.20;14.00;;;;;;;8.72;42.37;100958.15;106117;1276;24807;-81
2022/04/14 02:41:53;;;;;;;21.00;13.60;;;;;;;8.67;42.44;100958.98;105823;1276;22586;-84
2022/04/14 02:44:19;;;;;;;19.70;13.80;;;;;;;8.63;42.71;100953.70;106331;1276;24261;-81
2022/04/14 02:46:46;;;;;;;21.80;14.00;;;;;;;8.61;42.89;100953.16;106113;1276;25929;-82
2022/04/14 02:49:13;;;;;;;19.30;13.60;;;;;;;8.58;43.03;100954.35;106618;1276;22489;-82
2022/04/14 02:51:40;;;;;;;20.20;13.30;;;;;;;8.56;43.04;100950.83;106554;1278;22549;-79
2022/04/14 02:54:07;;;;;;;20.70;13.90;;;;;;;8.56;43.08;100950.12;105961;1276;23958;-81
2022/04/14 02:56:34;;;;;;;19.70;13.50;;;;;;;8.57;43.23;100953.83;105770;1275;25411;-83
2022/04/14 02:59:01;;;;;;;18.80;12.50;;;;;;;8.58;43.26;100956.98;105658;1278;25499;-80
2022/04/14 03:01:28;;;;;;;19.00;12.60;;;;;;;8.59;43.26;100959.10;105617;1279;22734;-82
2022/04/14 03:03:55;;;;;;;21.70;12.30;;;;;;;8.59;43.26;100955.25;105570;1278;25558;-82
2022/04/14 03:06:25;;;;;;;18.60;12.70;;;;;;;8.60;43.36;100954.73;105671;1278;22580;-76
2022/04/14 03:08:52;;;;;;;18.50;11.80;;;;;;;8.57;43.43;100951.02;105795;1278;26587;-79
2022/04/14 03:11:19;;;;;;;17.60;12.10;;;;;;;8.54;43.57;100949.92;105503;1279;22564;-79
2022/04/14 03:13:46;;;;;;;20.10;12.20;;;;;;;8.53;43.56;100954.63;105869;1276;22538;-78
2022/04/14 03:16:13;;;;;;;23.70;11.20;;;;;;;8.52;43.63;100951.29;105769;1276;25250;-81
2022/04/14 03:18:41;;;;;;;17.90;11.80;;;;;;;8.53;43.72;100950.95;105851;1276;24490;-80
2022/04/14 03:21:08;;;;;;;15.80;11.50;;;;;;;8.52;43.66;100949.17;105815;1276;25420;-80
2022/04/14 03:23:35;;;;;;;20.30;10.40;;;;;;;8.49;43.78;100947.58;105738;1276;25588;-82
2022/04/14 03:26:03;;;;;;;17.60;12.50;;;;;;;8.45;43.74;100940.52;105713;1276;24188;-80
2022/04/14 03:28:30;;;;;;;20.40;11.70;;;;;;;8.46;43.77;100943.87;105881;1276;23078;-81
2022/04/14 03:30:57;;;;;;;21.00;11.50;;;;;;;8.45;43.91;100940.16;105663;1276;22761;-79
2022/04/14 03:33:26;;;;;;;23.00;11.70;;;;;;;8.44;43.93;100936.83;105656;1276;24269;-83
2022/04/14 03:35:53;;;;;;;17.90;11.10;;;;;;;8.42;43.90;100932.08;106085;1276;22556;-80
2022/04/14 03:38:20;;;;;;;19.00;11.40;;;;;;;8.39;43.95;100931.35;105798;1276;22559;-81
2022/04/14 03:41:07;;;;;;;18.40;11.80;;;;;;;8.35;43.86;100928.50;106052;1276;25564;-84
2022/04/14 03:43:36;;;;;;;21.00;12.30;;;;;;;8.34;44.04;100925.69;105797;1276;24230;-87
2022/04/14 03:46:04;;;;;;;17.90;11.40;;;;;;;8.36;44.22;100926.23;105950;1276;25312;-86
2022/04/14 03:48:32;;;;;;;20.70;11.90;;;;;;;8.36;44.15;100922.54;105996;1276;25377;-80
2022/04/14 03:51:01;;;;;;;18.30;11.70;;;;;;;8.40;44.09;100924.34;105757;1276;25347;-89
2022/04/14 03:53:28;;;;;;;16.50;11.50;;;;;;;8.40;44.26;100924.69;105961;1276;25587;-81
2022/04/14 03:55:55;;;;;;;22.10;12.20;;;;;;;8.42;44.33;100918.21;105962;1276;25228;-86
2022/04/14 03:58:22;;;;;;;16.00;11.30;;;;;;;8.44;44.27;100914.89;106004;1276;23954;-84
2022/04/14 04:00:49;;;;;;;16.60;13.10;;;;;;;8.46;44.30;100914.38;105999;1276;22537;-83
2022/04/14 04:03:16;;;;;;;18.70;13.10;;;;;;;8.47;44.34;100913.15;105970;1276;22733;-83
2022/04/14 04:05:44;;;;;;;22.70;12.40;;;;;;;8.48;44.41;100915.61;105941;1276;22709;-77
2022/04/14 04:08:10;;;;;;;17.70;11.60;;;;;;;8.48;44.34;100917.20;105626;1276;24312;-80
2022/04/14 04:10:37;;;;;;;28.90;13.20;;;;;;;8.50;44.29;100920.56;105693;1276;22598;-80
2022/04/14 04:13:04;;;;;;;19.50;12.30;;;;;;;8.50;44.15;100917.73;105599;1276;25359;-80
2022/04/14 04:15:33;;;;;;;18.60;11.00;;;;;;;8.50;44.24;100917.74;106121;1276;24493;-86
2022/04/14 04:17:59;;;;;;;17.20;11.90;;;;;;;8.51;44.23;100913.01;106569;1276;22638;-85
2022/04/14 04:20:28;;;;;;;24.30;11.10;;;;;;;8.54;44.27;100913.58;106807;1276;25305;-84
2022/04/14 04:22:55;;;;;;;16.50;10.30;;;;;;;8.58;44.28;100910.30;106173;1276;22662;-83
2022/04/14 04:26:18;;;;;;;25.00;10.80;;;;;;;8.58;44.15;100910.83;106069;1275;22566;-83
2022/04/14 04:28:45;;;;;;;19.10;11.50;;;;;;;8.58;44.26;100910.64;106520;1276;25306;-83
2022/04/14 04:31:12;;;;;;;18.60;11.50;;;;;;;8.62;44.23;100908.56;106227;1278;24831;-82
2022/04/14 04:33:42;;;;;;;17.50;11.30;;;;;;;8.67;44.35;100905.61;106261;1276;25365;-85
2022/04/14 04:36:11;;;;;;;19.40;12.10;;;;;;;8.70;44.28;100900.02;106554;1276;24166;-85
2022/04/14 04:38:38;;;;;;;21.10;12.30;;;;;;;8.73;44.23;100903.19;106171;1276;22523;-86
2022/04/14 04:41:05;;;;;;;23.70;12.20;;;;;;;8.78;44.21;100899.02;105519;1283;25226;-82
2022/04/14 04:43:32;;;;;;;19.50;11.50;;;;;;;8.81;44.19;100899.04;106214;1282;23021;-85
2022/04/14 04:45:59;;;;;;;16.50;11.70;;;;;;;8.82;44.21;100896.92;106486;1282;24306;-86
2022/04/14 04:48:26;;;;;;;16.90;11.10;;;;;;;8.84;44.24;100901.34;107172;1282;22708;-86
2022/04/14 04:50:53;;;;;;;18.30;10.50;;;;;;;8.87;44.30;100896.78;107938;1281;22562;-84
2022/04/14 04:54:04;;;;;;;20.00;11.90;;;;;;;8.93;44.16;100895.07;105044;1306;558683;-81
2022/04/14 04:56:30;;;;;;;22.30;11.00;;;;;;;8.98;44.19;100895.09;106835;1283;23278;-82
2022/04/14 04:58:58;;;;;;;20.50;11.80;;;;;;;9.03;44.19;100898.30;107218;1277;25377;-82
2022/04/14 05:01:25;;;;;;;17.40;11.00;;;;;;;9.08;44.07;100897.95;106607;1277;23385;-84
2022/04/14 05:03:51;;;;;;;15.70;11.10;;;;;;;9.09;43.85;100903.58;105861;1277;22541;-86
2022/04/14 05:06:18;;;;;;;18.00;10.60;;;;;;;9.10;43.91;100899.20;105765;1274;192065;-84
2022/04/14 05:08:46;;;;;;;17.30;10.80;;;;;;;9.13;43.84;100902.36;106371;1274;22573;-84
2022/04/14 05:11:14;;;;;;;15.00;9.20;;;;;;;9.18;43.84;100900.28;105974;1274;22543;-83
2022/04/14 05:13:41;;;;;;;16.60;11.30;;;;;;;9.18;43.64;100896.78;106232;1274;22661;-84
2022/04/14 05:16:09;;;;;;;21.60;11.30;;;;;;;9.18;43.71;100893.79;106079;1274;25242;-82
2022/04/14 05:18:35;;;;;;;18.40;10.20;;;;;;;9.19;43.86;100893.45;105763;1282;22563;-82
2022/04/14 05:21:02;;;;;;;17.70;10.50;;;;;;;9.20;43.71;100898.02;104924;1285;26534;-82
2022/04/14 05:23:28;;;;;;;17.30;10.60;;;;;;;9.14;43.57;100889.55;105260;1284;22651;-84
2022/04/14 05:25:56;;;;;;;19.50;10.70;;;;;;;9.17;43.59;100889.04;105115;1285;22580;-84
2022/04/14 05:28:22;;;;;;;18.40;10.70;;;;;;;9.20;43.63;100889.58;105558;1281;22558;-82
2022/04/14 05:30:48;;;;;;;17.40;10.20;;;;;;;9.19;43.74;100886.05;105655;1279;22573;-80
2022/04/14 05:33:15;;;;;;;21.20;12.00;;;;;;;9.23;43.65;100889.25;105262;1280;25316;-81
2022/04/14 05:35:43;;;;;;;18.00;11.70;;;;;;;9.22;43.47;100889.05;105775;1279;24220;-85
2022/04/14 05:38:09;;;;;;;15.50;11.00;;;;;;;9.23;43.44;100886.95;106426;1271;22525;-80
2022/04/14 05:40:41;;;;;;;20.20;11.80;;;;;;;9.24;43.46;100887.14;106773;1271;22551;-86
2022/04/14 05:43:21;;;;;;;22.30;11.90;;;;;;;9.30;43.51;100887.16;107177;1271;22598;-85
2022/04/14 05:45:48;;;;;;;18.60;11.80;;;;;;;9.33;43.45;100892.80;106634;1271;23731;-84
2022/04/14 05:48:16;;;;;;;21.30;12.30;;;;;;;9.35;43.24;100892.10;106237;1276;22710;-83
2022/04/14 05:50:43;;;;;;;21.80;12.90;;;;;;;9.37;43.33;100893.52;106280;1276;22530;-87
2022/04/14 05:53:11;;;;;;;19.00;12.20;;;;;;;9.41;43.37;100893.36;107044;1276;22979;-79
2022/04/14 05:55:38;;;;;;;21.00;11.90;;;;;;;9.48;43.26;100892.86;105926;1277;24285;-82
2022/04/14 05:58:07;;;;;;;17.60;11.90;;;;;;;9.53;43.27;100894.10;105691;1277;25251;-80
2022/04/14 06:00:35;;;;;;;18.80;11.20;;;;;;;9.59;43.19;100895.36;105732;1277;24227;-79
2022/04/14 06:03:02;;;;;;;19.10;11.90;;;;;;;9.65;43.04;100891.68;105831;1277;25503;-83
2022/04/14 06:05:31;;;;;;;17.20;10.90;;;;;;;9.69;43.05;100894.50;105796;1274;25749;-86
2022/04/14 06:07:59;;;;;;;17.90;11.80;;;;;;;9.71;42.87;100891.52;106319;1271;23058;-78
2022/04/14 06:10:27;;;;;;;20.00;12.20;;;;;;;9.74;43.03;100886.06;106314;1271;24291;-79
2022/04/14 06:12:56;;;;;;;20.60;10.30;;;;;;;9.80;42.98;100888.55;106174;1271;22828;-80
2022/04/14 06:15:23;;;;;;;17.20;10.60;;;;;;;9.86;42.75;100891.73;106319;1271;25827;-81
2022/04/14 06:17:50;;;;;;;17.50;11.10;;;;;;;9.91;42.74;100885.40;105996;1277;24263;-81
2022/04/14 06:20:17;;;;;;;16.50;9.70;;;;;;;9.97;42.85;100886.81;106116;1277;25588;-83
2022/04/14 06:22:44;;;;;;;16.10;10.40;;;;;;;10.02;42.72;100883.48;105788;1276;24334;-80
2022/04/14 06:25:13;;;;;;;16.10;10.50;;;;;;;10.08;42.79;100884.02;105799;1277;25245;-81
2022/04/14 06:27:41;;;;;;;17.60;10.20;;;;;;;10.16;42.70;100878.91;106045;1277;22547;-81
2022/04/14 06:30:10;;;;;;;15.40;9.80;;;;;;;10.23;42.58;100877.85;105940;1277;22576;-81
2022/04/14 06:32:39;;;;;;;15.90;10.30;;;;;;;10.30;42.34;100878.58;105492;1282;25438;-83
2022/04/14 06:35:08;;;;;;;17.70;9.50;;;;;;;10.36;42.19;100874.52;105522;1278;22567;-80
2022/04/14 06:37:35;;;;;;;17.80;10.70;;;;;;;10.41;42.14;100870.30;106026;1277;23409;-83
2022/04/14 06:40:05;;;;;;;17.20;10.20;;;;;;;10.46;42.04;100866.78;106066;1277;22541;-83
2022/04/14 06:42:52;;;;;;;14.50;9.50;;;;;;;10.54;42.02;100863.27;105795;1277;22772;-80
2022/04/14 06:45:19;;;;;;;16.20;9.90;;;;;;;10.61;41.98;100858.67;105139;1284;22614;-81
2022/04/14 06:47:45;;;;;;;17.80;10.30;;;;;;;10.69;41.70;100854.61;105395;1282;22502;-80
2022/04/14 06:50:12;;;;;;;15.80;9.70;;;;;;;10.76;41.54;100854.94;106179;1277;22784;-82
2022/04/14 06:52:39;;;;;;;12.40;9.40;;;;;;;10.83;41.41;100857.73;106505;1277;24222;-81
2022/04/14 06:55:07;;;;;;;16.30;8.80;;;;;;;10.87;40.90;100852.61;106063;1277;25248;-81
2022/04/14 06:57:35;;;;;;;16.10;10.10;;;;;;;10.90;40.81;100849.45;105971;1277;24173;-80
2022/04/14 07:00:03;;;;;;;14.80;9.80;;;;;;;10.97;40.91;100847.31;105942;1276;22731;-81
2022/04/14 07:02:31;;;;;;;14.40;9.00;;;;;;;11.05;40.81;100845.52;105946;1276;23933;-82
2022/04/14 07:04:59;;;;;;;14.80;9.90;;;;;;;11.14;40.71;100844.59;106199;1271;25246;-79
2022/04/14 07:07:31;;;;;;;16.00;9.80;;;;;;;11.22;40.26;100842.45;105850;1277;25232;-80
2022/04/14 07:09:58;;;;;;;17.80;9.70;;;;;;;11.26;40.08;100839.08;105840;1277;22703;-82
2022/04/14 07:12:24;;;;;;;14.50;8.60;;;;;;;11.35;40.16;100841.68;105899;1277;23937;-78
2022/04/14 07:14:51;;;;;;;22.30;9.70;;;;;;;11.42;40.13;100839.34;105627;1280;24011;-78
2022/04/14 07:17:20;;;;;;;18.60;10.10;;;;;;;11.51;40.06;100840.55;106032;1276;24295;-82
2022/04/14 07:19:47;;;;;;;13.60;8.20;;;;;;;11.60;39.70;100842.61;106023;1277;22605;-79
2022/04/14 07:22:18;;;;;;;16.50;9.60;;;;;;;11.65;39.25;100841.33;105769;1279;24246;-80
2022/04/14 07:24:48;;;;;;;18.00;9.00;;;;;;;11.71;39.18;100834.06;106073;1277;22598;-82
2022/04/14 07:27:20;;;;;;;15.40;7.90;;;;;;;11.79;39.33;100832.60;106115;1274;22594;-81
2022/04/14 07:29:46;;;;;;;18.40;8.70;;;;;;;11.88;39.10;100826.17;106219;1274;24713;-81
2022/04/14 07:32:16;;;;;;;16.00;9.00;;;;;;;11.97;39.16;100826.81;106090;1271;22548;-81
2022/04/14 07:34:43;;;;;;;15.10;8.90;;;;;;;12.08;39.00;100826.92;106184;1271;22639;-82
2022/04/14 07:37:10;;;;;;;14.70;9.30;;;;;;;12.18;38.96;100830.20;106022;1277;24275;-81
2022/04/14 07:39:43;;;;;;;15.90;8.60;;;;;;;12.27;38.76;100831.36;106009;1277;25662;-83
2022/04/14 07:42:15;;;;;;;12.80;8.40;;;;;;;12.39;38.35;100828.08;105673;1282;25541;-80
2022/04/14 07:44:41;;;;;;;14.20;9.10;;;;;;;12.48;37.91;100818.63;105374;1284;25263;-78
2022/04/14 07:47:07;;;;;;;15.00;8.40;;;;;;;12.54;37.74;100810.61;105475;1283;25487;-82
2022/04/14 07:49:34;;;;;;;13.30;8.50;;;;;;;12.64;37.59;100814.76;105649;1282;22575;-82
2022/04/14 07:52:00;;;;;;;13.80;8.10;;;;;;;12.74;37.90;100815.71;105602;1282;22715;-82
2022/04/14 07:54:27;;;;;;;14.20;8.60;;;;;;;12.87;37.60;100817.52;105677;1281;25661;-80
2022/04/14 07:56:56;;;;;;;13.20;8.50;;;;;;;12.97;37.17;100817.20;105866;1277;22499;-83
2022/04/14 07:59:22;;;;;;;17.00;9.30;;;;;;;13.08;37.27;100816.36;105919;1278;25359;-85
2022/04/14 08:01:49;;;;;;;16.50;7.60;;;;;;;13.19;36.97;100816.75;106427;1271;22802;-83
2022/04/14 08:04:16;;;;;;;13.10;7.10;;;;;;;13.30;36.96;100819.43;106394;1272;25200;-84
2022/04/14 08:06:44;;;;;;;13.20;8.20;;;;;;;13.42;36.45;100815.21;106696;1271;22652;-81
2022/04/14 08:09:30;;;;;;;12.90;7.90;;;;;;;13.52;36.43;100812.79;106918;1274;24128;-81
2022/04/14 08:11:57;;;;;;;13.00;7.20;;;;;;;13.65;36.31;100814.90;106757;1271;25245;-82
2022/04/14 08:14:24;;;;;;;17.50;8.00;;;;;;;13.76;35.66;100812.77;106466;1271;25384;-84
2022/04/14 08:16:50;;;;;;;12.10;6.20;;;;;;;13.86;35.05;100812.65;106616;1271;22620;-82
2022/04/14 08:19:18;;;;;;;10.20;6.70;;;;;;;13.92;34.78;100807.95;106362;1274;22531;-84
2022/04/14 08:21:47;;;;;;;11.80;7.10;;;;;;;14.00;34.49;100803.73;106304;1271;24227;-84
2022/04/14 08:24:14;;;;;;;12.20;6.80;;;;;;;14.10;34.68;100800.73;106317;1271;22531;-81
2022/04/14 08:26:41;;;;;;;11.40;6.20;;;;;;;14.23;34.10;100802.10;106466;1271;22616;-85
2022/04/14 08:29:08;;;;;;;9.90;6.30;;;;;;;14.32;33.76;100804.08;106530;1272;26159;-84
2022/04/14 08:31:39;;;;;;;10.60;6.10;;;;;;;14.41;33.37;100801.08;106357;1271;22537;-85
2022/04/14 08:34:06;;;;;;;10.20;6.70;;;;;;;14.46;32.91;100797.43;106630;1271;24097;-83
2022/04/14 08:36:33;;;;;;;10.80;6.00;;;;;;;14.52;33.12;100799.27;106451;1271;23009;-84
2022/04/14 08:39:00;;;;;;;10.90;6.00;;;;;;;14.66;32.94;100800.96;106942;1271;22530;-82
2022/04/14 08:41:33;;;;;;;9.70;6.50;;;;;;;14.75;32.80;100802.55;107426;1271;22571;-81
2022/04/14 08:44:01;;;;;;;8.40;5.70;;;;;;;14.84;32.85;100803.84;107939;1271;22525;-82
2022/04/14 08:46:29;;;;;;;9.80;5.60;;;;;;;14.96;32.71;100797.73;108284;1271;22630;-82
2022/04/14 08:48:59;;;;;;;12.60;5.70;;;;;;;15.12;31.99;100799.19;108838;1271;22556;-82
2022/04/14 08:51:36;;;;;;;9.30;5.00;;;;;;;15.23;31.86;100797.34;109216;1270;22684;-81
2022/04/14 08:54:03;;;;;;;8.30;4.50;;;;;;;15.40;31.82;100801.05;109332;1271;22658;-83
2022/04/14 08:56:30;;;;;;;8.90;4.90;;;;;;;15.53;31.45;100797.20;109670;1271;22570;-82
2022/04/14 08:58:56;;;;;;;7.30;4.50;;;;;;;15.68;31.29;100798.64;109466;1270;22551;-84
2022/04/14 09:01:26;;;;;;;8.10;4.50;;;;;;;15.79;30.58;100794.46;109428;1271;22849;-85
2022/04/14 09:04:01;;;;;;;6.80;4.70;;;;;;;15.91;30.17;100791.49;109704;1271;22558;-84
2022/04/14 09:06:31;;;;;;;6.70;4.20;;;;;;;16.10;30.67;100795.70;109367;1276;22547;-82
2022/04/14 09:09:04;;;;;;;10.50;4.20;;;;;;;16.26;29.58;100792.42;109434;1276;23090;-82
2022/04/14 09:11:31;;;;;;;7.40;4.00;;;;;;;16.37;29.13;100781.46;108926;1277;22632;-82
2022/04/14 09:13:59;;;;;;;7.80;4.30;;;;;;;16.51;29.50;100780.39;108599;1282;22655;-83
2022/04/14 09:16:26;;;;;;;6.60;4.20;;;;;;;16.63;28.88;100777.22;108066;1282;22553;-83
2022/04/14 09:18:55;;;;;;;5.50;4.00;;;;;;;16.71;28.08;100772.19;107831;1282;22649;-83
2022/04/14 09:21:22;;;;;;;8.40;4.10;;;;;;;16.81;28.64;100771.17;107435;1282;22880;-82
2022/04/14 09:23:52;;;;;;;5.60;3.60;;;;;;;17.02;28.61;100775.73;107398;1280;22700;-84
2022/04/14 09:26:25;;;;;;;9.00;4.40;;;;;;;17.22;28.10;100770.89;106467;1277;22627;-83
2022/04/14 09:29:10;;;;;;;6.80;4.10;;;;;;;17.35;27.67;100767.29;106642;1277;24240;-83
2022/04/14 09:31:47;;;;;;;5.80;3.70;;;;;;;17.45;27.25;100763.42;107626;1271;22533;-83
2022/04/14 09:34:17;;;;;;;5.20;3.80;;;;;;;17.53;27.25;100760.33;107671;1272;22544;-83
2022/04/14 09:37:08;;;;;;;10.00;4.00;;;;;;;17.71;27.65;100755.63;108501;1274;22535;-84
2022/04/14 09:39:51;;;;;;;7.80;4.20;;;;;;;17.99;27.61;100750.45;108080;1271;24092;-84
2022/04/14 09:42:17;;;;;;;11.90;3.70;;;;;;;18.19;27.10;100743.38;108045;1274;22742;-84
2022/04/14 09:44:43;;;;;;;5.00;3.60;;;;;;;18.30;26.91;100740.66;106573;1273;25357;-84
2022/04/14 09:47:15;;;;;;;5.90;3.50;;;;;;;18.44;26.98;100736.26;106569;1271;22539;-82
2022/04/14 09:49:41;;;;;;;7.10;4.00;;;;;;;18.53;26.50;100735.00;106316;1277;22691;-83
2022/04/14 09:52:08;;;;;;;8.70;3.80;;;;;;;18.57;26.40;100728.30;106412;1274;25716;-83
2022/04/14 09:54:35;;;;;;;5.80;4.50;;;;;;;18.65;26.41;100726.22;106179;1275;22564;-81
2022/04/14 09:57:02;;;;;;;7.60;3.60;;;;;;;18.74;26.23;100717.65;106208;1275;23197;-84
2022/04/14 09:59:30;;;;;;;6.60;3.40;;;;;;;18.86;26.07;100719.20;106284;1274;26624;-83
2022/04/14 10:02:35;;;;;;;8.70;3.60;;;;;;;18.95;26.02;100720.58;106060;1274;24345;-85
2022/04/14 10:05:05;;;;;;;6.90;3.80;;;;;;;19.05;25.95;100726.82;105680;1281;22590;-83
2022/04/14 10:07:32;;;;;;;4.50;3.00;;;;;;;19.16;25.23;100722.30;105455;1284;24225;-83
2022/04/14 10:10:03;;;;;;;6.70;3.80;;;;;;;19.13;24.93;100720.10;105459;1284;22566;-83
2022/04/14 10:12:31;;;;;;;7.70;3.80;;;;;;;19.16;25.12;100713.20;105336;1281;22632;-83
2022/04/14 10:15:05;;;;;;;6.20;3.60;;;;;;;19.19;24.91;100716.12;105618;1278;23968;-83
2022/04/14 10:17:37;;;;;;;8.70;3.80;;;;;;;19.22;24.96;100710.86;105979;1277;22557;-84
2022/04/14 10:20:06;;;;;;;5.90;3.10;;;;;;;19.37;24.70;100701.67;106181;1277;24221;-83
2022/04/14 10:22:34;;;;;;;6.10;3.60;;;;;;;19.51;24.55;100697.19;105867;1277;24161;-84
2022/04/14 10:25:01;;;;;;;8.70;3.50;;;;;;;19.74;24.93;100703.18;105867;1278;24224;-82
2022/04/14 10:27:28;;;;;;;6.30;3.30;;;;;;;20.01;25.05;100689.54;106060;1278;22547;-82
2022/04/14 10:29:57;;;;;;;7.40;3.90;;;;;;;20.21;24.68;100691.55;106123;1277;24224;-83
2022/04/14 10:32:25;;;;;;;6.20;3.50;;;;;;;20.43;24.39;100690.55;106250;1277;24319;-82
2022/04/14 10:34:52;;;;;;;5.40;3.00;;;;;;;20.52;23.67;100688.02;106223;1277;22746;-79
2022/04/14 10:37:24;;;;;;;6.30;3.40;;;;;;;20.64;23.67;100685.82;106531;1278;22481;-75
2022/04/14 10:39:51;;;;;;;5.40;2.80;;;;;;;20.66;22.51;100687.16;107272;1271;22626;-82
2022/04/14 10:42:26;;;;;;;4.60;3.00;;;;;;;20.63;21.91;100682.69;107555;1271;22602;-80
2022/04/14 10:44:54;;;;;;;5.80;3.00;;;;;;;20.76;22.06;100677.05;106717;1271;22720;-78
2022/04/14 10:47:57;;;;;;;3.80;2.90;;;;;;;20.86;22.03;100674.96;106623;1271;22541;-75
2022/04/14 10:50:32;;;;;;;5.20;3.10;;;;;;;20.89;21.64;100668.00;106318;1271;24212;-78
2022/04/14 10:53:12;;;;;;;4.30;2.90;;;;;;;21.02;22.14;100669.56;106372;1271;25132;-80
2022/04/14 10:55:46;;;;;;;6.40;3.30;;;;;;;21.22;22.37;100667.02;106575;1271;24249;-75
2022/04/14 10:58:38;;;;;;;9.70;3.50;;;;;;;21.37;22.15;100659.45;106582;1271;25248;-81
2022/04/14 11:01:06;;;;;;;5.40;2.90;;;;;;;21.43;21.71;100652.36;106387;1271;22691;-81
2022/04/14 11:03:52;;;;;;;6.80;3.30;;;;;;;21.50;21.74;100651.48;106173;1273;24791;-78
2022/04/14 11:06:40;;;;;;;5.50;3.00;;;;;;;21.62;21.62;100647.81;106342;1271;25245;-81
2022/04/14 11:09:08;;;;;;;5.90;3.00;;;;;;;21.80;21.21;100643.02;106229;1271;25429;-77
2022/04/14 11:12:00;;;;;;;5.20;2.70;;;;;;;21.82;20.86;100642.19;106128;1271;22859;-79
2022/04/14 11:14:26;;;;;;;5.10;2.80;;;;;;;21.80;19.41;100640.67;106084;1271;22546;-75
2022/04/14 11:16:53;;;;;;;8.90;2.80;;;;;;;21.77;19.20;100637.79;105966;1277;22534;-83
2022/04/14 11:19:26;;;;;;;5.90;2.80;;;;;;;21.72;19.75;100631.39;106293;1271;24313;-78
2022/04/14 11:21:58;;;;;;;3.60;2.70;;;;;;;21.94;20.34;100629.38;106399;1271;23953;-78
2022/04/14 11:24:37;;;;;;;7.20;3.10;;;;;;;22.22;20.32;100630.02;106254;1271;22702;-75
2022/04/14 11:27:16;;;;;;;7.20;3.60;;;;;;;22.47;20.07;100625.27;106249;1272;22579;-76
2022/04/14 11:29:47;;;;;;;7.60;2.80;;;;;;;22.47;19.86;100625.63;105944;1277;22539;-76
2022/04/14 11:32:34;;;;;;;7.20;3.30;;;;;;;22.55;19.29;100622.49;105620;1277;24710;-77
2022/04/14 11:35:30;;;;;;;3.30;2.70;;;;;;;22.51;19.00;100621.96;105854;1277;23060;-76